Time;durP1;ratioP1;P1;durP2;ratioP2;P2;SDS_P1;SDS_P2;PMS_P1;PMS_P2;Temp;Humidity;BMP_temperature;BMP_pressure;BME280_temperature;BME280_humidity;BME280_pressure;Samples;Min_cycle;Max_cycle;Signal;HPM_P1;HPM_P2
2021/07/01 00:01:14;;;;;;;;;;;16.80;99.90;;;;;;5115029;28;19924;-81
2021/07/01 00:03:41;;;;;;;;;;;16.80;99.90;;;;;;5115135;28;19924;-81
2021/07/01 00:06:08;;;;;;;;;;;16.70;99.90;;;;;;5114764;28;19923;-81
2021/07/01 00:08:36;;;;;;;;;;;16.70;99.90;;;;;;5115094;28;19938;-81
2021/07/01 00:11:03;;;;;;;;;;;16.70;99.90;;;;;;5114839;28;19931;-80
2021/07/01 00:13:30;;;;;;;;;;;16.70;99.90;;;;;;5115040;28;19928;-81
2021/07/01 00:15:57;;;;;;;;;;;16.60;99.90;;;;;;5118487;28;19924;-81
2021/07/01 00:18:24;;;;;;;;;;;16.60;99.90;;;;;;5118685;28;19923;-80
2021/07/01 00:20:51;;;;;;;;;;;16.60;99.90;;;;;;5118462;28;19935;-81
2021/07/01 00:23:18;;;;;;;;;;;16.60;99.90;;;;;;5118528;28;20366;-81
2021/07/01 00:25:46;;;;;;;;;;;16.60;99.90;;;;;;5118513;28;19923;-81
2021/07/01 00:28:13;;;;;;;;;;;16.60;99.90;;;;;;5118449;28;19924;-81
2021/07/01 00:30:40;;;;;;;;;;;16.70;99.90;;;;;;5118295;28;20026;-80
2021/07/01 00:33:07;;;;;;;;;;;16.60;99.90;;;;;;5118463;28;19965;-81
2021/07/01 00:35:33;;;;;;;;;;;16.60;99.90;;;;;;5118395;28;19927;-80
2021/07/01 00:38:00;;;;;;;;;;;16.60;99.90;;;;;;5118501;28;19927;-81
2021/07/01 00:40:27;;;;;;;;;;;16.60;99.90;;;;;;5118361;28;19960;-81
2021/07/01 00:42:55;;;;;;;;;;;16.60;99.90;;;;;;5118039;28;20228;-81
2021/07/01 00:45:22;;;;;;;;;;;16.60;99.90;;;;;;5117900;28;19930;-81
2021/07/01 00:47:49;;;;;;;;;;;16.60;99.90;;;;;;5118209;28;19934;-81
2021/07/01 00:50:16;;;;;;;;;;;16.60;99.90;;;;;;5117950;28;19967;-81
2021/07/01 00:52:43;;;;;;;;;;;16.50;99.90;;;;;;5118120;28;20259;-81
2021/07/01 00:55:10;;;;;;;;;;;16.50;99.90;;;;;;5117884;28;19927;-81
2021/07/01 00:57:37;;;;;;;;;;;16.50;99.90;;;;;;5117979;28;19924;-80
2021/07/01 01:00:12;;;;;;;;;;;16.50;99.90;;;;;;5118064;28;19924;-81
2021/07/01 01:02:39;;;;;;;;;;;16.40;99.90;;;;;;5117961;28;19939;-80
2021/07/01 01:05:07;;;;;;;;;;;16.40;99.90;;;;;;5117770;28;19934;-81
2021/07/01 01:07:33;;;;;;;;;;;16.40;99.90;;;;;;5117577;28;19924;-81
2021/07/01 01:10:00;;;;;;;;;;;16.30;99.90;;;;;;5117688;28;19928;-81
2021/07/01 01:12:27;;;;;;;;;;;16.40;99.90;;;;;;5117812;28;20402;-80
2021/07/01 01:14:54;;;;;;;;;;;16.40;99.90;;;;;;5117485;28;19924;-81
2021/07/01 01:17:22;;;;;;;;;;;16.40;99.90;;;;;;5117393;28;19934;-80
2021/07/01 01:19:49;;;;;;;;;;;16.40;99.90;;;;;;5117410;28;19930;-81
2021/07/01 01:22:17;;;;;;;;;;;16.30;99.90;;;;;;5117561;28;19949;-81
2021/07/01 01:24:44;;;;;;;;;;;16.30;99.90;;;;;;5117402;28;20340;-81
2021/07/01 01:27:11;;;;;;;;;;;16.30;99.90;;;;;;5117393;28;19923;-80
2021/07/01 01:29:38;;;;;;;;;;;16.30;99.90;;;;;;5117371;28;19924;-81
2021/07/01 01:32:05;;;;;;;;;;;16.30;99.90;;;;;;5117197;28;19934;-81
2021/07/01 01:34:32;;;;;;;;;;;16.30;99.90;;;;;;5117351;28;19923;-81
2021/07/01 01:36:59;;;;;;;;;;;16.30;99.90;;;;;;5117172;28;19930;-81
2021/07/01 01:39:27;;;;;;;;;;;16.30;99.90;;;;;;5117486;28;19924;-81
2021/07/01 01:41:54;;;;;;;;;;;16.20;99.90;;;;;;5117359;28;19924;-81
2021/07/01 01:44:21;;;;;;;;;;;16.30;99.90;;;;;;5116915;28;20004;-81
2021/07/01 01:46:48;;;;;;;;;;;16.30;99.90;;;;;;5116835;28;20366;-81
2021/07/01 01:49:15;;;;;;;;;;;16.30;99.90;;;;;;5116590;28;19923;-80
2021/07/01 01:51:42;;;;;;;;;;;16.30;99.90;;;;;;5116984;28;19924;-81
2021/07/01 01:54:08;;;;;;;;;;;16.30;99.90;;;;;;5117042;28;19923;-81
2021/07/01 01:56:46;;;;;;;;;;;16.20;99.90;;;;;;5116849;28;19924;-81
2021/07/01 01:59:13;;;;;;;;;;;16.30;99.90;;;;;;5116798;28;19997;-81
2021/07/01 02:01:40;;;;;;;;;;;16.20;99.90;;;;;;5116717;28;20405;-81
2021/07/01 02:04:07;;;;;;;;;;;16.20;99.90;;;;;;5116663;28;19925;-80
2021/07/01 02:06:34;;;;;;;;;;;16.20;99.90;;;;;;5116253;28;19924;-81
2021/07/01 02:09:01;;;;;;;;;;;16.10;99.90;;;;;;5116492;28;19931;-81
2021/07/01 02:11:28;;;;;;;;;;;16.10;99.90;;;;;;5116403;28;20276;-81
2021/07/01 02:13:56;;;;;;;;;;;16.10;99.90;;;;;;5116686;28;19950;-81
2021/07/01 02:16:23;;;;;;;;;;;16.00;99.90;;;;;;5116417;28;20286;-81
2021/07/01 02:18:51;;;;;;;;;;;16.00;99.90;;;;;;5116349;28;19927;-81
2021/07/01 02:21:18;;;;;;;;;;;15.90;99.90;;;;;;5116142;28;20355;-82
2021/07/01 02:23:45;;;;;;;;;;;15.90;99.90;;;;;;5116471;28;19924;-81
2021/07/01 02:26:12;;;;;;;;;;;15.80;99.90;;;;;;5116255;28;20388;-81
2021/07/01 02:28:39;;;;;;;;;;;15.80;99.90;;;;;;5116115;28;19924;-80
2021/07/01 02:31:07;;;;;;;;;;;15.80;99.90;;;;;;5115952;28;19934;-81
2021/07/01 02:33:34;;;;;;;;;;;15.70;99.90;;;;;;5116079;28;19985;-81
2021/07/01 02:36:01;;;;;;;;;;;15.80;99.90;;;;;;5116001;28;19924;-81
2021/07/01 02:38:27;;;;;;;;;;;15.80;99.90;;;;;;5115708;28;19966;-81
2021/07/01 02:40:54;;;;;;;;;;;15.80;99.90;;;;;;5116037;28;19930;-81
2021/07/01 02:43:21;;;;;;;;;;;15.80;99.90;;;;;;5115841;28;20010;-81
2021/07/01 02:45:48;;;;;;;;;;;15.80;99.90;;;;;;5115836;28;19935;-81
2021/07/01 02:48:16;;;;;;;;;;;15.90;99.90;;;;;;5116153;28;19924;-80
2021/07/01 02:50:44;;;;;;;;;;;15.90;99.90;;;;;;5115746;28;19934;-81
2021/07/01 02:53:10;;;;;;;;;;;15.90;99.90;;;;;;5115739;28;19928;-81
2021/07/01 02:55:37;;;;;;;;;;;15.90;99.90;;;;;;5115846;28;19934;-81
2021/07/01 02:58:04;;;;;;;;;;;15.90;99.90;;;;;;5115956;28;19982;-80
2021/07/01 03:00:31;;;;;;;;;;;15.90;99.90;;;;;;5115683;28;20351;-80
2021/07/01 03:02:58;;;;;;;;;;;15.90;99.90;;;;;;5115567;28;19930;-81
2021/07/01 03:05:26;;;;;;;;;;;15.90;99.90;;;;;;5115636;28;19930;-81
2021/07/01 03:07:53;;;;;;;;;;;15.90;99.90;;;;;;5115367;28;19934;-81
2021/07/01 03:10:20;;;;;;;;;;;15.80;99.90;;;;;;5115857;28;19927;-81
2021/07/01 03:12:47;;;;;;;;;;;15.80;99.90;;;;;;5115423;28;20248;-81
2021/07/01 03:15:14;;;;;;;;;;;15.80;99.90;;;;;;5115544;28;19923;-80
2021/07/01 03:17:40;;;;;;;;;;;15.80;99.90;;;;;;5115400;28;19938;-80
2021/07/01 03:20:07;;;;;;;;;;;15.80;99.90;;;;;;5115552;28;19934;-81
2021/07/01 03:22:36;;;;;;;;;;;15.80;99.90;;;;;;5115467;28;19938;-81
2021/07/01 03:25:03;;;;;;;;;;;15.80;99.90;;;;;;5115593;28;19965;-81
2021/07/01 03:27:29;;;;;;;;;;;15.80;99.90;;;;;;5115607;28;19950;-80
2021/07/01 03:29:56;;;;;;;;;;;15.70;99.90;;;;;;5115379;28;20347;-81
2021/07/01 03:32:23;;;;;;;;;;;15.70;99.90;;;;;;5115416;28;19923;-80
2021/07/01 03:34:50;;;;;;;;;;;15.60;99.90;;;;;;5115382;28;20339;-81
2021/07/01 03:37:17;;;;;;;;;;;15.60;99.90;;;;;;5115590;28;19924;-81
2021/07/01 03:39:45;;;;;;;;;;;15.60;99.90;;;;;;5115575;28;20010;-81
2021/07/01 03:42:13;;;;;;;;;;;15.60;99.90;;;;;;5115252;28;19923;-81
2021/07/01 03:44:40;;;;;;;;;;;15.60;99.90;;;;;;5115353;28;19932;-81
2021/07/01 03:47:08;;;;;;;;;;;15.60;99.90;;;;;;5115274;28;19924;-81
2021/07/01 03:49:35;;;;;;;;;;;15.60;99.90;;;;;;5116656;28;19934;-83
2021/07/01 03:52:01;;;;;;;;;;;15.60;99.90;;;;;;5119106;28;20019;-81
2021/07/01 03:54:28;;;;;;;;;;;15.60;99.90;;;;;;5119155;28;19930;-81
2021/07/01 03:56:57;;;;;;;;;;;15.60;99.90;;;;;;5119137;28;19934;-80
2021/07/01 03:59:24;;;;;;;;;;;15.60;99.90;;;;;;5119139;28;20010;-81
2021/07/01 04:01:51;;;;;;;;;;;15.60;99.90;;;;;;5118907;28;19931;-81
2021/07/01 04:04:18;;;;;;;;;;;15.60;99.90;;;;;;5119121;28;19965;-81
2021/07/01 04:06:45;;;;;;;;;;;15.60;99.90;;;;;;5118628;28;20355;-81
2021/07/01 04:09:12;;;;;;;;;;;15.50;99.90;;;;;;5118922;28;19930;-81
2021/07/01 04:11:39;;;;;;;;;;;15.50;99.90;;;;;;5118854;28;20258;-81
2021/07/01 04:14:07;;;;;;;;;;;15.50;99.90;;;;;;5118785;28;19931;-81
2021/07/01 04:16:34;;;;;;;;;;;15.50;99.90;;;;;;5118761;28;20019;-81
2021/07/01 04:19:01;;;;;;;;;;;15.50;99.90;;;;;;5118680;28;19945;-81
2021/07/01 04:21:28;;;;;;;;;;;15.50;99.90;;;;;;5118586;28;20340;-81
2021/07/01 04:23:55;;;;;;;;;;;15.50;99.90;;;;;;5118766;28;20296;-80
2021/07/01 04:26:22;;;;;;;;;;;15.50;99.90;;;;;;5118605;28;19924;-81
2021/07/01 04:28:51;;;;;;;;;;;15.50;99.90;;;;;;5118568;28;19923;-81
2021/07/01 04:31:20;;;;;;;;;;;15.40;99.90;;;;;;5118474;28;19934;-81
2021/07/01 04:33:47;;;;;;;;;;;15.40;99.90;;;;;;5118277;28;19931;-81
2021/07/01 04:36:13;;;;;;;;;;;15.40;99.90;;;;;;5118486;28;19934;-81
2021/07/01 04:38:40;;;;;;;;;;;15.30;99.90;;;;;;5118505;28;19927;-81
2021/07/01 04:41:07;;;;;;;;;;;15.30;99.90;;;;;;5118063;28;19977;-81
2021/07/01 04:43:34;;;;;;;;;;;15.30;99.90;;;;;;5118380;28;19924;-81
2021/07/01 04:46:01;;;;;;;;;;;15.20;99.90;;;;;;5118089;28;20036;-81
2021/07/01 04:48:29;;;;;;;;;;;15.20;99.90;;;;;;5118104;28;20263;-82
2021/07/01 04:50:56;;;;;;;;;;;15.10;99.90;;;;;;5118251;28;19924;-81
2021/07/01 04:53:23;;;;;;;;;;;15.10;99.90;;;;;;5117930;28;20264;-81
2021/07/01 04:55:50;;;;;;;;;;;15.10;99.90;;;;;;5118048;28;19930;-81
2021/07/01 04:58:17;;;;;;;;;;;15.10;99.90;;;;;;5117962;28;19923;-81
2021/07/01 05:00:45;;;;;;;;;;;15.00;99.90;;;;;;5117495;28;19923;-81
2021/07/01 05:03:12;;;;;;;;;;;15.00;99.90;;;;;;5117768;28;20345;-81
2021/07/01 05:05:41;;;;;;;;;;;15.00;99.90;;;;;;5117827;28;19924;-81
2021/07/01 05:08:07;;;;;;;;;;;15.00;99.90;;;;;;5117344;28;19978;-81
2021/07/01 05:10:34;;;;;;;;;;;15.00;99.90;;;;;;5117823;28;19928;-81
2021/07/01 05:13:01;;;;;;;;;;;15.00;99.90;;;;;;5117547;28;19927;-81
2021/07/01 05:15:28;;;;;;;;;;;15.00;99.90;;;;;;5117525;28;20026;-81
2021/07/01 05:17:55;;;;;;;;;;;15.10;99.90;;;;;;5117552;28;19924;-81
2021/07/01 05:20:22;;;;;;;;;;;15.10;99.90;;;;;;5117665;28;19927;-80
2021/07/01 05:22:50;;;;;;;;;;;15.10;99.90;;;;;;5117643;28;19923;-81
2021/07/01 05:25:17;;;;;;;;;;;15.20;99.90;;;;;;5117395;28;19923;-81
2021/07/01 05:27:43;;;;;;;;;;;15.20;99.90;;;;;;5117381;28;19945;-81
2021/07/01 05:30:11;;;;;;;;;;;15.20;99.90;;;;;;5117331;28;19924;-82
2021/07/01 05:32:38;;;;;;;;;;;15.30;99.90;;;;;;5117143;28;19924;-81
2021/07/01 05:35:05;;;;;;;;;;;15.30;99.90;;;;;;5117159;28;19939;-81
2021/07/01 05:37:32;;;;;;;;;;;15.50;99.90;;;;;;5117520;28;19928;-81
2021/07/01 05:40:01;;;;;;;;;;;15.60;99.90;;;;;;5117347;28;19928;-81
2021/07/01 05:42:28;;;;;;;;;;;15.60;99.90;;;;;;5116993;28;19946;-81
2021/07/01 05:44:55;;;;;;;;;;;15.60;99.90;;;;;;5116989;28;20283;-81
2021/07/01 05:47:21;;;;;;;;;;;15.70;99.90;;;;;;5116832;28;19942;-81
2021/07/01 05:49:48;;;;;;;;;;;15.70;99.90;;;;;;5117098;28;19923;-81
2021/07/01 05:52:20;;;;;;;;;;;15.70;99.90;;;;;;5117049;28;19924;-81
2021/07/01 05:54:54;;;;;;;;;;;15.70;99.90;;;;;;5116892;28;19935;-80
2021/07/01 05:57:23;;;;;;;;;;;15.70;99.90;;;;;;5116624;28;20398;-81
2021/07/01 05:59:50;;;;;;;;;;;15.80;99.90;;;;;;5116882;28;19923;-80
2021/07/01 06:02:16;;;;;;;;;;;15.80;99.90;;;;;;5116948;28;19931;-80
2021/07/01 06:04:43;;;;;;;;;;;15.80;99.90;;;;;;5116841;28;19924;-81
2021/07/01 06:07:10;;;;;;;;;;;15.80;99.90;;;;;;5116254;28;20351;-81
2021/07/01 06:09:38;;;;;;;;;;;15.90;99.90;;;;;;5116597;28;19934;-80
2021/07/01 06:12:05;;;;;;;;;;;15.90;99.90;;;;;;5115790;28;19958;-80
2021/07/01 06:14:33;;;;;;;;;;;16.00;99.90;;;;;;5116718;28;19934;-80
2021/07/01 06:17:01;;;;;;;;;;;16.00;99.90;;;;;;5116277;28;19924;-80
2021/07/01 06:19:28;;;;;;;;;;;16.00;99.90;;;;;;5116308;28;20355;-80
2021/07/01 06:21:55;;;;;;;;;;;16.10;99.90;;;;;;5116345;28;19946;-81
2021/07/01 06:24:22;;;;;;;;;;;16.10;99.90;;;;;;5116314;28;19927;-82
2021/07/01 06:26:49;;;;;;;;;;;16.10;99.90;;;;;;5116484;28;19924;-80
2021/07/01 06:29:16;;;;;;;;;;;16.10;99.90;;;;;;5116102;28;19954;-80
2021/07/01 06:31:44;;;;;;;;;;;16.20;99.90;;;;;;5116080;28;19934;-81
2021/07/01 06:34:13;;;;;;;;;;;16.20;99.90;;;;;;5116235;28;19932;-80
2021/07/01 06:36:41;;;;;;;;;;;16.30;99.90;;;;;;5116121;28;19924;-80
2021/07/01 06:39:08;;;;;;;;;;;16.30;99.90;;;;;;5115951;28;19932;-80
2021/07/01 06:41:36;;;;;;;;;;;16.40;99.90;;;;;;5115979;28;19937;-80
2021/07/01 06:44:03;;;;;;;;;;;16.40;99.90;;;;;;5115926;28;20347;-81
2021/07/01 06:46:32;;;;;;;;;;;16.50;99.90;;;;;;5116054;28;19934;-80
2021/07/01 06:49:01;;;;;;;;;;;16.50;99.90;;;;;;5115847;28;19928;-80
2021/07/01 06:51:28;;;;;;;;;;;16.60;99.90;;;;;;5115878;28;19923;-80
2021/07/01 06:53:55;;;;;;;;;;;16.60;99.90;;;;;;5115701;28;19924;-80
2021/07/01 06:56:22;;;;;;;;;;;16.70;99.90;;;;;;5115910;28;19924;-80
2021/07/01 06:58:49;;;;;;;;;;;16.80;99.90;;;;;;5115944;28;19923;-81
2021/07/01 07:01:15;;;;;;;;;;;16.90;99.90;;;;;;5115715;28;20266;-81
2021/07/01 07:03:44;;;;;;;;;;;17.00;99.90;;;;;;5115599;28;19934;-80
2021/07/01 07:06:12;;;;;;;;;;;17.10;99.90;;;;;;5115339;28;19924;-81
2021/07/01 07:08:39;;;;;;;;;;;17.20;99.90;;;;;;5115904;28;19934;-80
2021/07/01 07:11:06;;;;;;;;;;;17.20;99.90;;;;;;5115781;28;20287;-80
2021/07/01 07:13:33;;;;;;;;;;;17.40;99.90;;;;;;5115423;28;20366;-80
2021/07/01 07:16:00;;;;;;;;;;;17.40;99.90;;;;;;5115638;28;19930;-80
2021/07/01 07:18:27;;;;;;;;;;;17.50;99.90;;;;;;5115564;28;20023;-80
2021/07/01 07:20:54;;;;;;;;;;;17.60;99.90;;;;;;5115447;28;20366;-80
2021/07/01 07:23:27;;;;;;;;;;;17.70;99.90;;;;;;5116726;28;19924;-80
2021/07/01 07:25:53;;;;;;;;;;;17.90;99.90;;;;;;5119990;28;19924;-80
2021/07/01 07:28:20;;;;;;;;;;;18.00;99.90;;;;;;5119829;28;19923;-80
2021/07/01 07:30:48;;;;;;;;;;;18.10;99.90;;;;;;5119793;28;19984;-79
2021/07/01 07:33:15;;;;;;;;;;;18.20;99.90;;;;;;5119442;28;20289;-80
2021/07/01 07:35:42;;;;;;;;;;;18.30;99.90;;;;;;5119493;28;19924;-79
2021/07/01 07:38:09;;;;;;;;;;;18.80;99.90;;;;;;5119276;28;19924;-80
2021/07/01 07:40:38;;;;;;;;;;;19.80;99.90;;;;;;5119510;28;19934;-80
2021/07/01 07:43:05;;;;;;;;;;;20.90;99.90;;;;;;5119634;28;19939;-80
2021/07/01 07:45:32;;;;;;;;;;;21.20;98.40;;;;;;5119452;28;19924;-80
2021/07/01 07:47:59;;;;;;;;;;;21.50;92.90;;;;;;5119245;28;19928;-80
2021/07/01 07:50:25;;;;;;;;;;;22.20;88.20;;;;;;5119190;28;19934;-80
2021/07/01 07:52:53;;;;;;;8.90;2.38;;;22.90;86.20;;;;;;5119143;28;20245;-80
2021/07/01 07:55:21;;;;;;;;;;;23.50;87.10;;;;;;5119042;28;20482;-80
2021/07/01 07:57:51;;;;;;;;;;;23.70;92.40;;;;;;5119220;28;19924;-79
2021/07/01 08:00:18;;;;;;;;;;;23.90;71.90;;;;;;5119211;28;20358;-80
2021/07/01 08:02:46;;;;;;;;;;;23.70;73.90;;;;;;5119146;28;19923;-80
2021/07/01 08:05:14;;;;;;;5.90;3.72;;;24.00;66.80;;;;;;5118253;28;20765;-80
2021/07/01 08:07:41;;;;;;;3.10;2.40;;;24.30;73.60;;;;;;5118465;28;20055;-80
2021/07/01 08:10:10;;;;;;;;;;;24.50;69.80;;;;;;5118864;28;20050;-80
2021/07/01 08:12:38;;;;;;;;;;;24.50;66.20;;;;;;5118959;28;19927;-80
2021/07/01 08:15:09;;;;;;;7.25;3.90;;;24.30;69.30;;;;;;5117962;28;20510;-82
2021/07/01 08:17:36;;;;;;;5.00;3.78;;;23.70;78.80;;;;;;5118277;28;20463;-83
2021/07/01 08:20:04;;;;;;;8.68;4.57;;;23.10;86.20;;;;;;5118529;28;20055;-82
2021/07/01 08:22:31;;;;;;;7.45;4.22;;;22.30;91.00;;;;;;5118415;28;20043;-83
2021/07/01 08:24:58;;;;;;;5.82;3.65;;;22.20;95.70;;;;;;5118237;28;20043;-83
2021/07/01 08:27:25;;;;;;;6.28;3.90;;;22.80;91.30;;;;;;5118074;28;20057;-83
2021/07/01 08:29:52;;;;;;;9.38;4.75;;;23.30;92.90;;;;;;5117985;28;20379;-82
2021/07/01 08:32:21;;;;;;;8.35;4.88;;;23.80;86.80;;;;;;5118285;28;20052;-83
2021/07/01 08:34:48;;;;;;;6.75;4.28;;;23.50;90.00;;;;;;5117390;28;20039;-83
2021/07/01 08:37:15;;;;;;;8.20;5.18;;;23.60;92.40;;;;;;5117959;28;20062;-82
2021/07/01 08:39:42;;;;;;;12.88;5.90;;;23.70;91.80;;;;;;5118037;28;20047;-82
2021/07/01 08:42:09;;;;;;;10.90;5.47;;;23.90;90.10;;;;;;5117873;28;20368;-82
2021/07/01 08:44:41;;;;;;;7.20;4.72;;;24.20;91.60;;;;;;5117765;28;20050;-82
2021/07/01 08:47:12;;;;;;;12.70;5.47;;;25.10;80.80;;;;;;5117797;28;20058;-83
2021/07/01 08:49:51;;;;;;;9.70;5.70;;;25.10;81.70;;;;;;5117743;28;20483;-83
2021/07/01 08:52:18;;;;;;;11.73;6.82;;;24.80;83.70;;;;;;5117897;28;20414;-83
2021/07/01 08:54:45;;;;;;;11.52;6.18;;;24.10;90.20;;;;;;5117628;28;20074;-84
2021/07/01 08:57:13;;;;;;;9.52;5.65;;;23.50;92.10;;;;;;5117493;28;20047;-83
2021/07/01 08:59:44;;;;;;;12.60;6.47;;;23.00;96.40;;;;;;5117507;28;20051;-84
2021/07/01 09:02:11;;;;;;;11.00;6.10;;;22.50;98.20;;;;;;5117009;28;20051;-83
2021/07/01 09:04:49;;;;;;;10.32;5.93;;;21.90;99.20;;;;;;5117627;28;20353;-84
2021/07/01 09:07:22;;;;;;;10.65;5.15;;;21.60;99.90;;;;;;5117225;28;20066;-84
2021/07/01 09:09:54;;;;;;;9.32;5.13;;;21.20;99.90;;;;;;5117217;28;20051;-83
2021/07/01 09:12:22;;;;;;;11.00;5.95;;;21.00;99.90;;;;;;5117287;28;20062;-84
2021/07/01 09:14:51;;;;;;;11.13;5.72;;;20.80;99.90;;;;;;5117100;28;20048;-84
2021/07/01 09:17:18;;;;;;;;;;;20.60;99.90;;;;;;5117635;28;20044;-83
2021/07/01 09:19:44;;;;;;;;;;;20.60;99.90;;;;;;5117801;28;19923;-83
2021/07/01 09:22:12;;;;;;;14.20;6.60;;;20.50;99.90;;;;;;5116996;28;20864;-83
2021/07/01 09:24:41;;;;;;;10.25;6.78;;;20.50;99.90;;;;;;5117015;28;20108;-83
2021/07/01 09:27:10;;;;;;;10.00;5.55;;;20.50;99.90;;;;;;5116957;28;20456;-84
2021/07/01 09:29:38;;;;;;;17.70;5.15;;;20.40;99.90;;;;;;5116933;28;20047;-83
2021/07/01 09:32:05;;;;;;;;;;;20.50;99.90;;;;;;5117526;28;19927;-83
2021/07/01 09:34:34;;;;;;;;;;;20.60;99.90;;;;;;5117166;28;19934;-83
2021/07/01 09:37:01;;;;;;;;;;;20.70;99.90;;;;;;5117372;28;19935;-83
2021/07/01 09:39:28;;;;;;;;;;;20.50;99.90;;;;;;5117181;28;20263;-83
2021/07/01 09:42:00;;;;;;;;;;;20.30;99.90;;;;;;5117048;28;19923;-83
2021/07/01 09:44:27;;;;;;;;;;;20.30;99.90;;;;;;5117224;28;19923;-83
2021/07/01 09:46:54;;;;;;;;;;;20.20;99.90;;;;;;5115972;28;19927;-83
2021/07/01 09:49:21;;;;;;;;;;;20.20;99.90;;;;;;5116909;28;19934;-84
2021/07/01 09:51:48;;;;;;;;;;;20.20;99.90;;;;;;5116817;28;19924;-74
2021/07/01 09:54:15;;;;;;;;;;;20.30;99.90;;;;;;5116905;28;19924;-74
2021/07/01 09:56:42;;;;;;;;;;;20.40;99.90;;;;;;5116707;28;20343;-74
2021/07/01 09:59:14;;;;;;;;;;;20.50;99.90;;;;;;5117222;28;19934;-74
2021/07/01 10:01:42;;;;;;;;;;;20.70;99.90;;;;;;5116806;28;19934;-74
2021/07/01 10:04:08;;;;;;;;;;;20.80;99.90;;;;;;5116706;28;19924;-74
2021/07/01 10:06:35;;;;;;;;;;;21.00;99.90;;;;;;5116394;28;20263;-74
2021/07/01 10:09:05;;;;;;;;;;;21.00;99.90;;;;;;5116521;28;19943;-74
2021/07/01 10:11:36;;;;;;;;;;;20.90;99.90;;;;;;5116499;28;19935;-73
2021/07/01 10:14:03;;;;;;;;;;;20.70;99.90;;;;;;5116486;28;19923;-74
2021/07/01 10:16:32;;;;;;;;;;;20.60;99.90;;;;;;5116357;28;19930;-74
2021/07/01 10:18:59;;;;;;;;;;;20.60;99.90;;;;;;5108865;28;19928;-73
2021/07/01 10:21:27;;;;;;;;;;;20.70;99.90;;;;;;5095994;28;19925;-73
2021/07/01 10:24:06;;;;;;;;;;;20.90;99.90;;;;;;5095730;28;19928;-73
2021/07/01 10:26:37;;;;;;;;;;;21.00;99.90;;;;;;5095786;28;19938;-73
2021/07/01 10:29:04;;;;;;;;;;;21.20;99.90;;;;;;5095790;28;19928;-72
2021/07/01 10:31:41;;;;;;;;;;;21.30;99.90;;;;;;5095771;28;19924;-72
2021/07/01 10:34:07;;;;;;;;;;;21.30;99.90;;;;;;5095500;28;19924;-72
2021/07/01 10:36:34;;;;;;;;;;;21.20;99.90;;;;;;5095515;28;19928;-72
2021/07/01 10:39:01;;;;;;;;;;;21.10;99.90;;;;;;5095679;28;20338;-72
2021/07/01 10:41:28;;;;;;;;;;;21.00;99.90;;;;;;5095542;28;19934;-72
2021/07/01 10:43:55;;;;;;;;;;;20.90;99.90;;;;;;5095572;28;19935;-72
2021/07/01 10:46:22;;;;;;;;;;;20.70;99.90;;;;;;5095377;28;19934;-74
2021/07/01 10:48:56;;;;;;;;;;;20.60;99.90;;;;;;5095421;28;19924;-74
2021/07/01 10:51:24;;;;;;;;;;;20.60;99.90;;;;;;5095411;28;19989;-74
2021/07/01 10:53:51;;;;;;;;;;;20.70;99.90;;;;;;5095585;28;19935;-74
2021/07/01 10:56:25;;;;;;;;;;;20.80;99.90;;;;;;5095378;28;19923;-73
2021/07/01 10:58:54;;;;;;;;;;;20.90;99.90;;;;;;5094965;28;19925;-73
2021/07/01 11:01:21;;;;;;;;;;;21.00;99.90;;;;;;5095308;28;20359;-73
2021/07/01 11:03:48;;;;;;;;;;;21.00;99.90;;;;;;5095243;28;19924;-73
2021/07/01 11:06:16;;;;;;;;;;;21.30;99.90;;;;;;5094478;28;19938;-73
2021/07/01 11:08:45;;;;;;;;;;;21.30;99.90;;;;;;5094487;28;21331;-73
2021/07/01 11:11:18;;;;;;;;;;;21.30;99.90;;;;;;5095180;28;19924;-73
2021/07/01 11:13:53;;;;;;;;;;;21.40;99.90;;;;;;5095033;28;20272;-73
2021/07/01 11:16:20;;;;;;;;;;;21.30;99.90;;;;;;5095202;28;19939;-73
2021/07/01 11:18:47;;;;;;;;;;;21.30;99.90;;;;;;5095376;28;19935;-73
2021/07/01 11:21:16;;;;;;;;;;;21.30;99.90;;;;;;5095182;28;20000;-73
2021/07/01 11:23:44;;;;;;;;;;;21.20;99.90;;;;;;5095256;28;19924;-73
2021/07/01 11:26:26;;;;;;;;;;;21.20;99.90;;;;;;5095233;28;20014;-73
2021/07/01 11:28:53;;;;;;;;;;;21.20;99.90;;;;;;5095040;28;19934;-73
2021/07/01 11:31:20;;;;;;;;;;;21.00;99.90;;;;;;5094965;28;19924;-73
2021/07/01 11:33:49;;;;;;;;;;;21.00;99.90;;;;;;5094747;28;19951;-73
2021/07/01 11:36:18;;;;;;;;;;;20.90;99.90;;;;;;5094860;28;19932;-74
2021/07/01 11:38:45;;;;;;;;;;;20.90;99.90;;;;;;5094838;28;19928;-73
2021/07/01 11:41:13;;;;;;;;;;;20.90;99.90;;;;;;5091521;28;19928;-73
2021/07/01 11:43:41;;;;;;;;;;;21.00;99.90;;;;;;5094553;28;19994;-73
2021/07/01 11:46:07;;;;;;;;;;;21.00;99.90;;;;;;5095066;28;19935;-73
2021/07/01 11:48:35;;;;;;;;;;;21.20;99.90;;;;;;5095023;28;19971;-73
2021/07/01 11:51:02;;;;;;;;;;;21.30;99.90;;;;;;5094897;28;19924;-73
2021/07/01 11:53:30;;;;;;;;;;;21.30;99.90;;;;;;5094778;28;20340;-73
2021/07/01 11:55:58;;;;;;;;;;;21.30;99.90;;;;;;5094701;28;20330;-72
2021/07/01 11:58:25;;;;;;;;;;;21.20;99.90;;;;;;5094747;28;19978;-72
2021/07/01 12:00:52;;;;;;;;;;;20.90;99.90;;;;;;5094858;28;19923;-72
2021/07/01 12:03:18;;;;;;;;;;;20.70;99.90;;;;;;5094799;28;20360;-73
2021/07/01 12:05:46;;;;;;;;;;;20.60;99.90;;;;;;5094401;28;19928;-73
2021/07/01 12:08:12;;;;;;;;;;;20.50;99.90;;;;;;5094734;28;19924;-73
2021/07/01 12:10:41;;;;;;;;;;;20.40;99.90;;;;;;5096186;28;19924;-73
2021/07/01 12:13:38;;;;;;;;;;;20.40;99.90;;;;;;5098304;28;19924;-73
2021/07/01 12:16:07;;;;;;;;;;;20.40;99.90;;;;;;5098483;28;19932;-73
2021/07/01 12:18:51;;;;;;;;;;;20.40;99.90;;;;;;5098256;28;19924;-73
2021/07/01 12:21:19;;;;;;;;;;;20.40;99.90;;;;;;5090148;28;19924;-73
2021/07/01 12:23:48;;;;;;;;;;;20.40;99.90;;;;;;5098370;28;19924;-72
2021/07/01 12:26:47;;;;;;;;;;;20.30;99.90;;;;;;5098331;28;20282;-72
2021/07/01 12:29:19;;;;;;;;;;;20.30;99.90;;;;;;5056215;28;19929;-72
2021/07/01 12:31:47;;;;;;;;;;;20.30;99.90;;;;;;5056315;28;20027;-72
2021/07/01 12:34:14;;;;;;;;;;;20.40;99.90;;;;;;5056253;28;19929;-80
2021/07/01 12:36:42;;;;;;;;;;;20.40;99.90;;;;;;5055551;28;19925;-81
2021/07/01 12:39:12;;;;;;;;;;;20.40;99.90;;;;;;5056040;28;20280;-81
2021/07/01 12:41:39;;;;;;;;;;;20.50;99.90;;;;;;5054788;28;19978;-82
2021/07/01 12:44:06;;;;;;;;;;;20.60;99.90;;;;;;5055972;28;19935;-82
2021/07/01 12:46:53;;;;;;;;;;;20.80;99.90;;;;;;5055900;28;19936;-82
2021/07/01 12:49:40;;;;;;;;;;;21.00;99.90;;;;;;5055750;28;20264;-82
2021/07/01 12:52:12;;;;;;;;;;;21.20;99.90;;;;;;5055978;28;19932;-82
2021/07/01 12:54:57;;;;;;;;;;;21.40;99.90;;;;;;5055793;28;19925;-82
2021/07/01 12:57:24;;;;;;;;;;;21.50;99.90;;;;;;5055748;28;19928;-82
2021/07/01 12:59:51;;;;;;;;;;;21.50;99.90;;;;;;5055656;28;19933;-82
2021/07/01 13:02:20;;;;;;;;;;;21.40;99.90;;;;;;5058359;28;20034;-81
2021/07/01 13:04:50;;;;;;;;;;;21.30;99.90;;;;;;5096991;28;19936;-81
2021/07/01 13:07:18;;;;;;;;;;;21.20;99.90;;;;;;5095674;28;19924;-82
2021/07/01 13:09:46;;;;;;;;;;;21.20;99.90;;;;;;5097158;28;19934;-80
2021/07/01 13:12:14;;;;;;;;;;;21.20;99.90;;;;;;5096797;28;19989;-82
2021/07/01 13:14:41;;;;;;;;;;;21.30;99.90;;;;;;5096985;28;19973;-82
2021/07/01 13:17:09;;;;;;;;;;;21.40;99.90;;;;;;5096888;28;19930;-82
2021/07/01 13:19:36;;;;;;;;;;;21.60;99.90;;;;;;5096949;28;19931;-82
2021/07/01 13:22:11;;;;;;;;;;;21.70;99.90;;;;;;5097214;28;19939;-82
2021/07/01 13:24:40;;;;;;;;;;;21.90;99.90;;;;;;5097051;28;20244;-82
2021/07/01 13:27:07;;;;;;;;;;;22.00;99.90;;;;;;5096866;28;19924;-82
2021/07/01 13:29:34;;;;;;;;;;;22.00;99.90;;;;;;5096971;28;19934;-81
2021/07/01 13:32:02;;;;;;;;;;;21.90;99.30;;;;;;5097022;28;19942;-82
2021/07/01 13:34:29;;;;;;;;;;;21.70;99.20;;;;;;5097122;28;19978;-82
2021/07/01 13:36:56;;;;;;;;;;;21.50;99.80;;;;;;5096752;28;20274;-80
2021/07/01 13:39:29;;;;;;;;;;;21.40;99.90;;;;;;5096800;28;19924;-82
2021/07/01 13:41:57;;;;;;;;;;;21.30;98.80;;;;;;5096832;28;19934;-82
2021/07/01 13:44:24;;;;;;;;;;;21.30;99.90;;;;;;5096750;28;19928;-82
2021/07/01 13:46:51;;;;;;;;;;;21.40;99.30;;;;;;5096983;28;19924;-81
2021/07/01 13:49:18;;;;;;;;;;;21.40;99.90;;;;;;5096757;28;19924;-81
2021/07/01 13:51:44;;;;;;;;;;;21.40;98.90;;;;;;5096698;28;19928;-81
2021/07/01 13:54:12;;;;;;;;;;;21.50;99.90;;;;;;5096673;28;19924;-81
2021/07/01 13:56:40;;;;;;;;;;;21.60;99.90;;;;;;5096493;28;19924;-81
2021/07/01 13:59:08;;;;;;;;;;;21.60;99.70;;;;;;5096512;28;20015;-81
2021/07/01 14:01:35;;;;;;;;;;;21.60;99.60;;;;;;5096255;28;19985;-82
2021/07/01 14:04:02;;;;;;;;;;;21.50;99.70;;;;;;5096301;28;19924;-82
2021/07/01 14:06:33;;;;;;;;;;;21.60;99.90;;;;;;5096101;28;19924;-84
2021/07/01 14:09:00;;;;;;;;;;;21.70;98.80;;;;;;5096413;28;20310;-86
2021/07/01 14:11:28;;;;;;;;;;;21.70;98.70;;;;;;5096449;28;20014;-82